createdAt,value
2022-09-17T00:01:33.504Z,11.10
2022-09-17T00:04:04.187Z,17.30
2022-09-17T00:06:34.845Z,15.20
2022-09-17T00:09:03.065Z,15.32
2022-09-17T00:11:35.043Z,13.07
2022-09-17T00:14:04.520Z,18.43
2022-09-17T00:16:34.512Z,14.40
2022-09-17T00:19:03.278Z,20.20
2022-09-17T00:21:31.469Z,19.17
2022-09-17T00:24:01.272Z,17.92
2022-09-17T00:26:30.475Z,19.40
2022-09-17T00:29:00.972Z,19.77
2022-09-17T00:31:30.877Z,16.45
2022-09-17T00:34:02.079Z,12.30
2022-09-17T00:36:30.363Z,20.80
2022-09-17T00:39:00.131Z,16.75
2022-09-17T00:41:30.777Z,16.52
2022-09-17T00:44:02.401Z,13.23
2022-09-17T00:46:37.076Z,15.13
2022-09-17T00:49:08.628Z,13.65
2022-09-17T00:51:40.344Z,12.50
2022-09-17T00:54:11.737Z,13.32
2022-09-17T00:56:43.458Z,12.32
2022-09-17T00:59:12.829Z,17.77
2022-09-17T01:01:40.731Z,17.52
2022-09-17T01:04:16.494Z,16.80
2022-09-17T01:06:52.947Z,16.38
2022-09-17T01:09:28.778Z,17.70
2022-09-17T01:12:32.366Z,18.73
2022-09-17T01:17:41.764Z,12.18
2022-09-17T01:20:39.454Z,15.38
2022-09-17T01:23:28.678Z,12.48
2022-09-17T01:26:10.366Z,9.70
2022-09-17T01:28:45.314Z,13.50
2022-09-17T01:31:30.811Z,14.52
2022-09-17T01:34:06.000Z,14.98
2022-09-17T01:36:58.301Z,13.85
2022-09-17T01:39:36.173Z,8.35
2022-09-17T01:42:14.990Z,12.85
2022-09-17T01:44:53.211Z,13.48
2022-09-17T01:47:25.323Z,16.60
2022-09-17T01:49:59.270Z,18.07
2022-09-17T01:52:31.146Z,15.98
2022-09-17T01:55:04.727Z,17.48
2022-09-17T01:57:36.549Z,13.10
2022-09-17T02:00:09.661Z,21.00
2022-09-17T02:02:45.856Z,13.73
2022-09-17T02:05:18.348Z,12.80
2022-09-17T02:07:52.157Z,21.65
2022-09-17T02:10:23.927Z,16.10
2022-09-17T02:12:58.004Z,16.40
2022-09-17T02:15:28.902Z,16.15
2022-09-17T02:18:06.472Z,18.15
2022-09-17T02:20:41.977Z,15.75
2022-09-17T02:23:15.650Z,13.38
2022-09-17T02:25:49.735Z,16.35
2022-09-17T02:28:25.392Z,16.23
2022-09-17T02:30:53.393Z,18.40
2022-09-17T02:33:23.830Z,14.43
2022-09-17T02:35:51.858Z,17.02
2022-09-17T02:38:24.290Z,17.90
2022-09-17T02:40:56.164Z,15.82
2022-09-17T02:43:32.358Z,18.92
2022-09-17T02:46:20.930Z,14.02
2022-09-17T02:49:11.237Z,19.15
2022-09-17T02:51:49.422Z,15.35
2022-09-17T02:54:26.714Z,23.92
2022-09-17T02:57:05.121Z,19.70
2022-09-17T02:59:41.814Z,19.35
2022-09-17T03:02:18.378Z,16.55
2022-09-17T03:04:49.903Z,23.83
2022-09-17T03:07:20.248Z,20.30
2022-09-17T03:09:48.320Z,15.63
2022-09-17T03:12:16.672Z,20.75
2022-09-17T03:14:44.552Z,18.30
2022-09-17T03:17:15.041Z,23.40
2022-09-17T03:19:43.012Z,22.58
2022-09-17T03:22:12.549Z,23.88
2022-09-17T03:24:40.521Z,19.25
2022-09-17T03:27:08.493Z,19.25
2022-09-17T03:29:36.420Z,19.45
2022-09-17T03:32:04.841Z,21.20
2022-09-17T03:34:32.855Z,23.02
2022-09-17T03:37:00.750Z,21.60
2022-09-17T03:39:32.177Z,24.60
2022-09-17T03:42:00.042Z,18.85
2022-09-17T03:44:27.899Z,20.50
2022-09-17T03:46:55.815Z,16.42
2022-09-17T03:49:24.855Z,16.08
2022-09-17T03:51:52.710Z,16.00
2022-09-17T03:54:20.713Z,16.98
2022-09-17T03:56:52.124Z,20.20
2022-09-17T03:59:20.067Z,16.42
2022-09-17T04:01:48.022Z,16.42
2022-09-17T04:04:16.068Z,10.73
2022-09-17T04:06:43.932Z,17.85
2022-09-17T04:09:11.816Z,24.23
2022-09-17T04:11:39.664Z,11.43
2022-09-17T04:14:08.872Z,19.00
2022-09-17T04:16:36.747Z,19.73
2022-09-17T04:19:04.710Z,25.40
2022-09-17T04:21:32.590Z,23.70
2022-09-17T04:24:00.858Z,16.55
2022-09-17T04:26:28.739Z,13.52
2022-09-17T04:28:56.705Z,17.05
2022-09-17T04:31:27.116Z,13.38
2022-09-17T04:36:25.281Z,14.13
2022-09-17T04:38:53.519Z,13.23
2022-09-17T04:41:21.522Z,14.35
2022-09-17T04:43:49.564Z,19.33
2022-09-17T04:46:17.992Z,17.42
2022-09-17T04:48:47.316Z,27.58
2022-09-17T04:51:15.211Z,19.80
2022-09-17T04:53:43.093Z,20.90
2022-09-17T04:56:11.181Z,25.42
2022-09-17T04:58:39.147Z,20.83
2022-09-17T05:01:07.344Z,24.58
2022-09-17T05:03:37.504Z,17.08
2022-09-17T05:06:07.114Z,18.20
2022-09-17T05:08:34.921Z,17.10
2022-09-17T05:11:02.922Z,14.50
2022-09-17T05:13:31.066Z,18.30
2022-09-17T05:15:59.086Z,16.00
2022-09-17T05:18:27.050Z,14.05
2022-09-17T05:20:54.932Z,21.58
2022-09-17T05:23:24.209Z,14.18
2022-09-17T05:25:52.831Z,11.40
2022-09-17T05:28:20.875Z,15.32
2022-09-17T05:30:48.740Z,21.60
2022-09-17T05:33:16.638Z,15.43
2022-09-17T05:35:45.270Z,19.70
2022-09-17T05:38:13.206Z,18.88
2022-09-17T05:40:42.414Z,15.48
2022-09-17T05:43:11.153Z,17.38
2022-09-17T05:45:39.742Z,21.38
2022-09-17T05:48:10.491Z,14.77
2022-09-17T05:50:38.461Z,16.58
2022-09-17T05:53:12.051Z,17.27
2022-09-17T05:55:43.292Z,21.98
2022-09-17T05:58:12.466Z,17.70
2022-09-17T06:00:41.044Z,21.15
2022-09-17T06:03:10.042Z,21.77
2022-09-17T06:05:37.989Z,15.57
2022-09-17T06:08:06.506Z,16.35
2022-09-17T06:10:37.318Z,16.83
2022-09-17T06:13:08.983Z,13.55
2022-09-17T06:15:36.950Z,23.30
2022-09-17T06:18:04.964Z,20.95
2022-09-17T06:20:35.220Z,24.25
2022-09-17T06:23:03.068Z,29.92
2022-09-17T06:25:31.783Z,25.80
2022-09-17T06:27:59.712Z,24.38
2022-09-17T06:30:28.997Z,24.13
2022-09-17T06:32:56.866Z,37.22
2022-09-17T06:35:24.763Z,30.45
2022-09-17T06:37:52.649Z,32.58
2022-09-17T06:40:23.281Z,24.15
2022-09-17T06:42:58.565Z,29.98
2022-09-17T06:45:28.044Z,29.00
2022-09-17T06:47:56.196Z,32.42
2022-09-17T06:50:25.033Z,34.05
2022-09-17T06:52:54.073Z,32.03
2022-09-17T06:55:24.287Z,26.70
2022-09-17T06:57:52.175Z,22.92
2022-09-17T07:00:20.202Z,23.52
2022-09-17T07:02:57.731Z,27.27
2022-09-17T07:05:25.849Z,25.30
2022-09-17T07:07:53.814Z,35.47
2022-09-17T07:10:23.308Z,26.13
2022-09-17T07:12:51.257Z,20.90
2022-09-17T07:15:19.435Z,24.55
2022-09-17T07:17:47.393Z,30.50
2022-09-17T07:20:19.779Z,20.60
2022-09-17T07:22:55.997Z,29.10
2022-09-17T07:25:24.325Z,29.55
2022-09-17T07:27:52.309Z,30.77
2022-09-17T07:30:20.647Z,26.00
2022-09-17T07:32:50.907Z,30.88
2022-09-17T07:35:20.229Z,24.77
2022-09-17T07:37:48.342Z,27.60
2022-09-17T07:40:16.391Z,25.73
2022-09-17T07:42:46.559Z,23.88
2022-09-17T07:45:14.545Z,24.17
2022-09-17T07:47:42.646Z,23.58
2022-09-17T07:50:11.144Z,22.88
2022-09-17T07:52:46.204Z,25.17
2022-09-17T07:55:14.273Z,22.90
2022-09-17T07:57:42.202Z,24.58
2022-09-17T08:00:11.213Z,18.58
2022-09-17T08:02:42.133Z,27.50
2022-09-17T08:05:10.466Z,20.67
2022-09-17T08:07:40.150Z,26.35
2022-09-17T08:10:08.641Z,24.83
2022-09-17T08:12:36.617Z,29.65
2022-09-17T08:15:04.875Z,20.13
2022-09-17T08:17:32.796Z,22.58
2022-09-17T08:20:00.711Z,25.08
2022-09-17T08:22:28.659Z,18.80
2022-09-17T08:24:57.948Z,15.00
2022-09-17T08:27:25.874Z,25.42
2022-09-17T08:29:54.056Z,18.20
2022-09-17T08:32:22.022Z,18.23
2022-09-17T08:34:50.000Z,22.48
2022-09-17T08:37:18.017Z,21.45
2022-09-17T08:39:45.933Z,17.40
2022-09-17T08:42:22.048Z,21.38
2022-09-17T08:44:52.110Z,20.00
2022-09-17T08:47:26.430Z,19.60
2022-09-17T08:49:56.871Z,16.13
2022-09-17T08:52:49.865Z,18.27
2022-09-17T08:55:34.013Z,18.20
2022-09-17T08:58:24.814Z,18.50
2022-09-17T09:00:58.115Z,17.40
2022-09-17T09:03:42.019Z,18.80
2022-09-17T09:06:11.518Z,15.85
2022-09-17T09:08:44.160Z,17.30
2022-09-17T09:11:17.031Z,16.65
2022-09-17T09:16:23.582Z,16.23
2022-09-17T09:18:55.438Z,18.85
2022-09-17T09:21:28.507Z,16.75
2022-09-17T09:23:59.745Z,20.27
2022-09-17T09:26:44.825Z,17.90
2022-09-17T09:29:28.790Z,18.48
2022-09-17T09:32:15.939Z,16.05
2022-09-17T09:34:46.064Z,16.52
2022-09-17T09:37:21.011Z,14.90
2022-09-17T09:39:52.618Z,17.70
2022-09-17T09:42:28.479Z,18.45
2022-09-17T09:45:05.206Z,17.52
2022-09-17T09:47:55.520Z,20.30
2022-09-17T09:51:01.861Z,18.30
2022-09-17T09:53:33.124Z,19.13
2022-09-17T09:56:18.020Z,17.80
2022-09-17T09:58:45.979Z,19.50
2022-09-17T10:01:17.240Z,13.65
2022-09-17T10:03:47.158Z,17.95
2022-09-17T10:06:16.235Z,18.40
2022-09-17T10:09:12.083Z,17.83
2022-09-17T10:11:40.557Z,13.63
2022-09-17T10:14:17.231Z,17.15
2022-09-17T10:16:45.347Z,19.15
2022-09-17T10:19:19.503Z,19.75
2022-09-17T10:21:47.391Z,17.30
2022-09-17T10:24:24.940Z,13.15
2022-09-17T10:26:53.938Z,18.58
2022-09-17T10:29:22.325Z,21.63
2022-09-17T10:31:51.732Z,13.52
2022-09-17T10:34:24.433Z,15.73
2022-09-17T10:36:53.000Z,13.85
2022-09-17T10:39:32.703Z,14.27
2022-09-17T10:42:02.082Z,14.02
2022-09-17T10:44:31.612Z,16.52
2022-09-17T10:47:08.577Z,20.88
2022-09-17T10:49:44.811Z,19.63
2022-09-17T10:52:20.957Z,20.55
2022-09-17T10:55:06.342Z,14.30
2022-09-17T10:57:47.284Z,19.23
2022-09-17T11:00:20.195Z,15.95
2022-09-17T11:03:20.935Z,23.92
2022-09-17T11:06:12.249Z,14.75
2022-09-17T11:08:51.134Z,20.13
2022-09-17T11:11:34.951Z,15.60
2022-09-17T11:14:14.228Z,21.73
2022-09-17T11:16:52.721Z,14.75
2022-09-17T11:19:32.637Z,13.98
2022-09-17T11:22:12.648Z,14.88
2022-09-17T11:25:09.873Z,12.55
2022-09-17T11:27:54.344Z,13.98
2022-09-17T11:30:24.299Z,13.32
2022-09-17T11:33:21.253Z,15.80
2022-09-17T11:35:53.685Z,11.18
2022-09-17T11:38:25.985Z,11.18
2022-09-17T11:41:04.204Z,13.48
2022-09-17T11:43:36.373Z,13.40
2022-09-17T11:46:09.665Z,10.77
2022-09-17T11:48:44.480Z,12.45
2022-09-17T11:51:23.297Z,14.90
2022-09-17T11:53:55.437Z,11.30
2022-09-17T11:56:31.015Z,18.35
2022-09-17T11:59:09.855Z,10.43
2022-09-17T12:01:42.796Z,8.48
2022-09-17T12:04:30.755Z,7.38
2022-09-17T12:07:03.447Z,14.07
2022-09-17T12:09:35.289Z,9.43
2022-09-17T12:12:17.925Z,7.03
2022-09-17T12:15:01.585Z,10.57
2022-09-17T12:17:35.595Z,11.57
2022-09-17T12:20:08.767Z,8.75
2022-09-17T12:22:41.373Z,10.35
2022-09-17T12:25:13.780Z,11.98
2022-09-17T12:27:54.413Z,9.52
2022-09-17T12:30:26.339Z,9.88
2022-09-17T12:33:10.011Z,9.27
2022-09-17T12:36:05.792Z,7.40
2022-09-17T12:39:03.232Z,5.45
2022-09-17T12:41:40.241Z,10.20
2022-09-17T12:44:22.660Z,9.02
2022-09-17T12:47:05.372Z,9.75
2022-09-17T12:50:06.348Z,12.07
2022-09-17T12:52:47.264Z,8.13
2022-09-17T12:55:48.117Z,9.10
2022-09-17T12:58:28.283Z,13.55
2022-09-17T13:01:03.566Z,11.65
2022-09-17T13:03:37.723Z,8.52
2022-09-17T13:06:33.944Z,11.43
2022-09-17T13:09:23.893Z,9.95
2022-09-17T13:12:09.412Z,14.65
2022-09-17T13:15:04.720Z,9.50
2022-09-17T13:17:46.779Z,6.50
2022-09-17T13:20:27.255Z,6.13
2022-09-17T13:22:59.358Z,7.75
2022-09-17T13:25:27.808Z,7.40
2022-09-17T13:28:08.106Z,5.82
2022-09-17T13:30:57.829Z,12.70
2022-09-17T13:34:05.216Z,5.88
2022-09-17T13:36:46.994Z,4.80
2022-09-17T13:39:34.856Z,11.80
2022-09-17T13:42:08.104Z,11.55
2022-09-17T13:44:37.575Z,10.80
2022-09-17T13:47:26.736Z,8.98
2022-09-17T13:49:59.982Z,9.73
2022-09-17T13:52:42.092Z,9.68
2022-09-17T13:55:30.576Z,8.03
2022-09-17T13:57:58.970Z,10.15
2022-09-17T14:00:54.117Z,13.25
2022-09-17T14:03:55.644Z,15.60
2022-09-17T14:06:51.473Z,10.13
2022-09-17T14:09:50.152Z,8.75
2022-09-17T14:12:56.790Z,13.73
2022-09-17T14:15:39.306Z,11.77
2022-09-17T14:18:38.799Z,14.85
2022-09-17T14:21:14.445Z,10.52
2022-09-17T14:23:46.808Z,10.13
2022-09-17T14:26:26.525Z,12.93
2022-09-17T14:29:02.369Z,11.80
2022-09-17T14:31:36.801Z,9.18
2022-09-17T14:34:11.689Z,15.27
2022-09-17T14:36:40.474Z,8.93
2022-09-17T14:39:14.133Z,7.88
2022-09-17T14:41:45.748Z,8.10
2022-09-17T14:44:16.818Z,10.48
2022-09-17T14:46:53.078Z,12.00
2022-09-17T14:49:23.639Z,10.93
2022-09-17T14:51:52.190Z,13.57
2022-09-17T14:54:22.919Z,13.20
2022-09-17T14:57:01.380Z,9.40
2022-09-17T14:59:44.192Z,7.15
2022-09-17T15:02:28.068Z,9.02
2022-09-17T15:05:00.173Z,8.82
2022-09-17T15:07:28.438Z,6.63
2022-09-17T15:10:06.774Z,7.50
2022-09-17T15:12:36.786Z,5.20
2022-09-17T15:15:05.316Z,5.95
2022-09-17T15:17:34.403Z,5.40
2022-09-17T15:20:06.317Z,4.15
2022-09-17T15:22:38.845Z,5.35
2022-09-17T15:25:09.892Z,8.85
2022-09-17T15:27:42.021Z,6.60
2022-09-17T15:30:15.088Z,6.80
2022-09-17T15:32:49.494Z,9.10
2022-09-17T15:35:23.794Z,9.45
2022-09-17T15:38:21.203Z,8.63
2022-09-17T15:40:42.408Z,4.72
2022-09-17T15:43:19.572Z,8.25
2022-09-17T15:45:49.880Z,4.07
2022-09-17T15:48:35.392Z,6.88
2022-09-17T15:51:06.898Z,8.73
2022-09-17T15:53:36.057Z,11.73
2022-09-17T15:56:07.190Z,10.25
2022-09-17T15:58:54.795Z,8.55
2022-09-17T16:01:52.902Z,5.35
2022-09-17T16:04:31.563Z,8.02
2022-09-17T16:07:28.746Z,9.38
2022-09-17T16:09:59.241Z,5.90
2022-09-17T16:12:30.364Z,5.32
2022-09-17T16:15:01.717Z,7.65
2022-09-17T16:17:35.644Z,9.02
2022-09-17T16:20:10.251Z,8.02
2022-09-17T16:22:38.224Z,7.75
2022-09-17T16:25:07.016Z,8.85
2022-09-17T16:27:41.071Z,9.50
2022-09-17T16:30:16.565Z,5.90
2022-09-17T16:32:44.694Z,13.07
2022-09-17T16:35:17.661Z,12.80
2022-09-17T16:37:48.874Z,9.73
2022-09-17T16:40:19.997Z,9.07
2022-09-17T16:42:48.219Z,8.07
2022-09-17T16:45:17.836Z,7.22
2022-09-17T16:47:45.779Z,8.48
2022-09-17T16:50:17.605Z,10.30
2022-09-17T16:52:46.475Z,10.77
2022-09-17T16:55:15.676Z,10.68
2022-09-17T16:57:44.201Z,11.82
2022-09-17T17:00:16.221Z,11.95
2022-09-17T17:02:45.665Z,8.20
2022-09-17T17:05:13.809Z,7.18
2022-09-17T17:07:42.009Z,9.60
2022-09-17T17:10:10.773Z,6.95
2022-09-17T17:12:39.466Z,16.50
2022-09-17T17:15:09.315Z,7.32
2022-09-17T17:17:37.462Z,9.43
2022-09-17T17:20:09.545Z,9.88
2022-09-17T17:22:38.306Z,10.57
2022-09-17T17:25:09.622Z,4.88
2022-09-17T17:27:38.226Z,6.60
2022-09-17T17:30:08.671Z,4.10
2022-09-17T17:32:37.770Z,6.18
2022-09-17T17:35:08.718Z,5.05
2022-09-17T17:37:36.674Z,5.75
2022-09-17T17:40:09.293Z,4.70
2022-09-17T17:42:39.291Z,12.48
2022-09-17T17:45:08.886Z,6.45
2022-09-17T17:47:39.176Z,7.97
2022-09-17T17:50:10.541Z,5.53
2022-09-17T17:52:40.251Z,6.95
2022-09-17T17:55:08.965Z,6.28
2022-09-17T17:57:37.277Z,6.35
2022-09-17T18:00:06.188Z,5.47
2022-09-17T18:02:40.089Z,6.07
2022-09-17T18:05:11.711Z,7.07
2022-09-17T18:07:40.068Z,6.93
2022-09-17T18:10:08.600Z,8.10
2022-09-17T18:12:38.971Z,7.85
2022-09-17T18:15:08.040Z,11.32
2022-09-17T18:17:36.634Z,7.35
2022-09-17T18:20:05.815Z,16.77
2022-09-17T18:22:35.073Z,11.77
2022-09-17T18:25:02.990Z,8.02
2022-09-17T18:27:32.956Z,10.52
2022-09-17T18:30:00.937Z,13.68
2022-09-17T18:32:30.940Z,16.10
2022-09-17T18:35:01.287Z,12.90
2022-09-17T18:37:29.943Z,13.02
2022-09-17T18:39:59.792Z,10.98
2022-09-17T18:42:27.879Z,7.28
2022-09-17T18:44:55.832Z,9.00
2022-09-17T18:47:23.831Z,3.72
2022-09-17T18:49:51.820Z,7.95
2022-09-17T18:52:19.755Z,9.77
2022-09-17T18:54:47.770Z,7.60
2022-09-17T18:57:17.068Z,7.22
2022-09-17T18:59:45.039Z,5.15
2022-09-17T19:02:13.883Z,7.40
2022-09-17T19:04:41.901Z,6.88
2022-09-17T19:07:09.824Z,5.68
2022-09-17T19:09:37.723Z,4.93
2022-09-17T19:12:08.253Z,8.10
2022-09-17T19:14:37.784Z,4.93
2022-09-17T19:17:06.092Z,5.72
2022-09-17T19:19:33.999Z,8.13
2022-09-17T19:22:01.995Z,6.10
2022-09-17T19:24:29.930Z,4.18
2022-09-17T19:26:58.787Z,6.75
2022-09-17T19:29:27.622Z,5.95
2022-09-17T19:31:56.935Z,3.95
2022-09-17T19:34:24.875Z,4.40
2022-09-17T19:36:52.873Z,4.68
2022-09-17T19:39:20.784Z,5.22
2022-09-17T19:41:48.709Z,7.25
2022-09-17T19:44:16.656Z,6.95
2022-09-17T19:46:45.037Z,7.43
2022-09-17T19:49:14.457Z,5.65
2022-09-17T19:51:42.645Z,4.38
2022-09-17T19:54:11.608Z,8.68
2022-09-17T19:56:40.002Z,6.05
2022-09-17T19:59:08.036Z,6.88
2022-09-17T20:01:36.101Z,5.80
2022-09-17T20:04:04.426Z,6.30
2022-09-17T20:06:36.556Z,12.80
2022-09-17T20:09:04.796Z,7.25
2022-09-17T20:11:33.915Z,8.45
2022-09-17T20:14:06.443Z,8.25
2022-09-17T20:16:36.026Z,9.10
2022-09-17T20:19:06.015Z,6.68
2022-09-17T20:21:35.999Z,6.85
2022-09-17T20:24:06.583Z,12.18
2022-09-17T20:26:35.000Z,11.52
2022-09-17T20:29:03.135Z,11.70
2022-09-17T20:31:32.665Z,8.27
2022-09-17T20:34:03.287Z,10.68
2022-09-17T20:36:33.322Z,11.10
2022-09-17T20:39:14.293Z,11.90
2022-09-17T20:41:46.893Z,7.68
2022-09-17T20:44:14.895Z,16.33
2022-09-17T20:46:43.039Z,11.55
2022-09-17T20:49:13.540Z,10.65
2022-09-17T20:51:43.748Z,11.57
2022-09-17T20:54:13.229Z,15.68
2022-09-17T20:56:41.306Z,17.45
2022-09-17T20:59:14.331Z,19.83
2022-09-17T21:01:44.832Z,20.40
2022-09-17T21:04:15.744Z,14.90
2022-09-17T21:06:44.817Z,12.10
2022-09-17T21:09:16.770Z,10.25
2022-09-17T21:11:46.139Z,10.60
2022-09-17T21:14:15.637Z,12.75
2022-09-17T21:16:43.721Z,13.10
2022-09-17T21:19:14.079Z,16.42
2022-09-17T21:21:42.403Z,10.18
2022-09-17T21:24:10.932Z,15.45
2022-09-17T21:26:40.254Z,14.43
2022-09-17T21:29:08.296Z,16.85
2022-09-17T21:31:38.114Z,14.40
2022-09-17T21:34:07.533Z,17.10
2022-09-17T21:36:37.186Z,12.20
2022-09-17T21:39:06.805Z,11.52
2022-09-17T21:41:38.620Z,15.00
2022-09-17T21:44:11.123Z,14.30
2022-09-17T21:46:39.945Z,17.45
2022-09-17T21:49:11.110Z,18.60
2022-09-17T21:51:40.762Z,24.67
2022-09-17T21:54:10.229Z,17.35
2022-09-17T21:56:38.251Z,16.15
2022-09-17T21:59:07.524Z,13.15
2022-09-17T22:01:39.684Z,17.00
2022-09-17T22:04:09.036Z,15.82
2022-09-17T22:06:37.985Z,9.05
2022-09-17T22:09:07.441Z,15.52
2022-09-17T22:11:37.705Z,12.57
2022-09-17T22:14:09.110Z,16.88
2022-09-17T22:16:41.291Z,15.77
2022-09-17T22:19:10.557Z,16.83
2022-09-17T22:21:40.602Z,9.65
2022-09-17T22:24:12.275Z,12.60
2022-09-17T22:26:43.288Z,10.82
2022-09-17T22:29:14.264Z,16.95
2022-09-17T22:31:43.774Z,17.38
2022-09-17T22:34:13.613Z,13.40
2022-09-17T22:36:41.818Z,17.00
2022-09-17T22:39:10.064Z,14.55
2022-09-17T22:41:42.826Z,19.10
2022-09-17T22:44:13.695Z,19.27
2022-09-17T22:49:15.045Z,12.15
2022-09-17T22:51:43.599Z,11.80
2022-09-17T22:54:13.008Z,15.27
2022-09-17T22:56:41.921Z,11.13
2022-09-17T22:59:09.850Z,10.38
2022-09-17T23:01:38.221Z,13.95
2022-09-17T23:04:07.808Z,14.52
2022-09-17T23:06:38.984Z,14.48
2022-09-17T23:09:09.378Z,11.32
2022-09-17T23:11:39.228Z,10.35
2022-09-17T23:14:10.031Z,11.63
2022-09-17T23:16:40.090Z,11.70
2022-09-17T23:19:09.416Z,13.63
2022-09-17T23:21:38.753Z,9.85
2022-09-17T23:24:07.356Z,8.63
2022-09-17T23:26:37.411Z,7.57
2022-09-17T23:29:06.013Z,10.98
2022-09-17T23:31:35.457Z,12.07
2022-09-17T23:34:04.075Z,11.02
2022-09-17T23:36:34.945Z,9.35
2022-09-17T23:39:03.502Z,13.75
2022-09-17T23:41:32.935Z,13.85
2022-09-17T23:44:02.463Z,14.38
2022-09-17T23:46:32.651Z,12.00
2022-09-17T23:49:01.278Z,11.88
2022-09-17T23:51:30.995Z,13.27
2022-09-17T23:54:00.553Z,13.45
2022-09-17T23:56:29.623Z,17.38
2022-09-17T23:59:00.160Z,13.07
